createdAt,value
2022-12-08T00:06:13.229Z,23.15
2022-12-08T00:13:01.531Z,24.10
2022-12-08T00:19:47.882Z,25.00
2022-12-08T00:26:34.225Z,26.67
2022-12-08T00:33:22.385Z,22.80
2022-12-08T00:40:10.444Z,24.58
2022-12-08T00:46:56.217Z,26.38
2022-12-08T00:53:44.462Z,25.02
2022-12-08T01:00:29.924Z,22.90
2022-12-08T01:07:15.350Z,26.48
2022-12-08T01:14:03.456Z,22.52
2022-12-08T01:20:48.907Z,22.48
2022-12-08T01:27:34.417Z,23.83
2022-12-08T01:34:22.488Z,24.15
2022-12-08T01:41:07.986Z,25.17
2022-12-08T01:47:57.417Z,23.83
2022-12-08T01:54:50.425Z,24.08
2022-12-08T02:01:36.226Z,22.02
2022-12-08T02:08:21.986Z,23.70
2022-12-08T02:15:11.692Z,24.00
2022-12-08T02:22:03.905Z,24.65
2022-12-08T02:29:35.446Z,24.52
2022-12-08T02:36:29.692Z,24.30
2022-12-08T02:43:21.363Z,23.65
2022-12-08T02:50:07.916Z,24.27
2022-12-08T02:57:25.480Z,25.80
2022-12-08T03:11:10.718Z,26.10
2022-12-08T03:18:02.436Z,23.52
2022-12-08T03:24:49.890Z,24.90
2022-12-08T03:31:42.025Z,23.80
2022-12-08T03:38:30.167Z,22.65
2022-12-08T04:06:00.736Z,27.08
2022-12-08T04:12:46.532Z,22.98
2022-12-08T04:19:32.223Z,21.67
2022-12-08T04:26:20.859Z,21.77
2022-12-08T04:33:06.500Z,21.17
2022-12-08T04:39:51.937Z,24.75
2022-12-08T04:46:43.333Z,21.05
2022-12-08T04:53:29.574Z,22.00
2022-12-08T05:00:16.427Z,21.63
2022-12-08T05:07:04.684Z,21.92
2022-12-08T05:13:50.122Z,21.92
2022-12-08T05:20:35.608Z,22.42
2022-12-08T05:27:23.909Z,23.80
2022-12-08T05:34:09.589Z,23.08
2022-12-08T05:40:54.998Z,23.30
2022-12-08T05:47:43.120Z,22.85
2022-12-08T05:54:28.543Z,25.83
2022-12-08T06:01:27.501Z,25.15
2022-12-08T06:08:16.895Z,24.73
2022-12-08T06:15:02.441Z,22.65
2022-12-08T06:21:48.077Z,23.05
2022-12-08T06:28:37.369Z,26.35
2022-12-08T06:35:22.749Z,23.10
2022-12-08T06:42:20.843Z,24.98
2022-12-08T06:49:08.875Z,23.55
2022-12-08T06:55:59.607Z,22.58
2022-12-08T07:02:46.105Z,23.50
2022-12-08T07:09:34.217Z,21.17
2022-12-08T07:16:19.863Z,20.23
2022-12-08T07:23:07.500Z,20.70
2022-12-08T07:29:55.947Z,20.55
2022-12-08T07:36:41.478Z,24.83
2022-12-08T07:43:27.684Z,22.10
2022-12-08T07:50:16.203Z,24.27
2022-12-08T07:57:03.721Z,21.83
2022-12-08T08:03:49.216Z,20.10
2022-12-08T08:10:37.280Z,22.85
2022-12-08T08:17:22.930Z,24.02
2022-12-08T08:24:09.395Z,19.67
2022-12-08T08:30:57.545Z,18.08
2022-12-08T08:37:48.335Z,19.55
2022-12-08T08:44:34.573Z,21.95
2022-12-08T08:51:22.716Z,22.30
2022-12-08T08:58:08.116Z,20.80
2022-12-08T09:04:53.661Z,21.98
2022-12-08T09:11:41.848Z,21.85
2022-12-08T09:18:27.302Z,23.63
2022-12-08T09:25:13.578Z,20.90
2022-12-08T09:32:01.601Z,20.23
2022-12-08T09:38:48.004Z,21.15
2022-12-08T09:45:37.580Z,28.48
2022-12-08T09:52:33.647Z,21.65
2022-12-08T09:59:28.098Z,23.33
2022-12-08T10:06:24.763Z,20.33
2022-12-08T10:13:23.710Z,21.35
2022-12-08T10:20:19.019Z,24.60
2022-12-08T10:27:06.143Z,24.60
2022-12-08T10:40:47.330Z,21.67
2022-12-08T10:47:33.882Z,23.73
2022-12-08T10:54:37.342Z,21.00
2022-12-08T11:01:28.465Z,19.92
2022-12-08T11:08:15.321Z,21.42
2022-12-08T11:15:06.280Z,20.33
2022-12-08T11:21:51.928Z,22.05
2022-12-08T11:28:37.592Z,21.85
2022-12-08T11:35:31.877Z,23.15
2022-12-08T11:42:22.797Z,19.75
2022-12-08T11:49:15.263Z,20.38
2022-12-08T11:56:11.464Z,20.30
2022-12-08T12:03:04.953Z,20.20
2022-12-08T12:10:28.291Z,22.08
2022-12-08T12:17:36.735Z,20.83
2022-12-08T12:24:29.448Z,20.90
2022-12-08T12:31:22.376Z,18.20
2022-12-08T12:38:34.768Z,19.05
2022-12-08T12:45:33.031Z,15.35
2022-12-08T12:52:57.098Z,17.73
2022-12-08T13:00:05.206Z,14.45
2022-12-08T13:06:53.619Z,12.75
2022-12-08T13:13:40.810Z,13.40
2022-12-08T13:20:29.305Z,12.68
2022-12-08T13:27:36.938Z,13.63
2022-12-08T13:34:41.328Z,15.32
2022-12-08T13:41:39.999Z,13.70
2022-12-08T14:03:00.448Z,17.90
2022-12-08T14:09:47.729Z,18.05
2022-12-08T14:16:40.635Z,17.60
2022-12-08T14:23:28.640Z,16.60
2022-12-08T14:30:24.326Z,16.58
2022-12-08T14:37:16.110Z,18.00
2022-12-08T14:44:05.758Z,16.83
2022-12-08T14:51:07.637Z,17.20
2022-12-08T14:57:53.204Z,15.57
2022-12-08T15:04:43.946Z,15.68
2022-12-08T15:11:38.449Z,17.27
2022-12-08T15:18:34.075Z,15.32
2022-12-08T15:25:22.384Z,15.00
2022-12-08T15:32:12.330Z,15.48
2022-12-08T15:38:57.823Z,18.65
2022-12-08T15:45:57.810Z,16.88
2022-12-08T15:52:44.241Z,19.33
2022-12-08T15:59:29.685Z,17.67
2022-12-08T16:13:56.689Z,17.88
2022-12-08T16:21:07.474Z,19.80
2022-12-08T16:28:08.255Z,17.17
2022-12-08T16:34:58.936Z,16.67
2022-12-08T16:41:57.033Z,17.70
2022-12-08T16:48:45.348Z,18.13
2022-12-08T16:55:31.359Z,18.33
2022-12-08T17:02:16.790Z,17.93
2022-12-08T17:09:04.976Z,18.95
2022-12-08T17:15:50.423Z,19.65
2022-12-08T17:22:36.994Z,20.05
2022-12-08T17:29:25.244Z,18.77
2022-12-08T17:36:15.357Z,19.48
2022-12-08T17:43:00.835Z,22.45
2022-12-08T17:49:49.114Z,19.02
2022-12-08T17:56:34.573Z,18.38
2022-12-08T18:03:20.799Z,19.52
2022-12-08T18:10:11.237Z,17.53
2022-12-08T18:16:57.069Z,17.83
2022-12-08T18:23:44.685Z,22.53
2022-12-08T18:30:32.926Z,18.98
2022-12-08T18:37:18.636Z,18.58
2022-12-08T18:44:04.707Z,19.92
2022-12-08T18:50:52.755Z,20.92
2022-12-08T18:57:39.249Z,19.73
2022-12-08T19:04:28.962Z,24.50
2022-12-08T19:11:24.500Z,22.52
2022-12-08T19:18:09.910Z,22.48
2022-12-08T19:24:55.421Z,21.92
2022-12-08T19:31:43.599Z,19.83
2022-12-08T19:38:29.021Z,20.15
2022-12-08T19:45:18.482Z,21.15
2022-12-08T19:52:06.728Z,23.02
2022-12-08T19:58:52.208Z,22.73
2022-12-08T20:05:39.973Z,22.55
2022-12-08T20:12:27.999Z,24.00
2022-12-08T20:19:13.638Z,20.98
2022-12-08T20:25:59.345Z,23.67
2022-12-08T20:32:47.641Z,20.23
2022-12-08T20:39:33.123Z,24.05
2022-12-08T20:46:22.401Z,20.02
2022-12-08T20:53:11.020Z,20.20
2022-12-08T20:59:56.655Z,19.98
2022-12-08T21:06:42.483Z,21.45
2022-12-08T21:13:30.828Z,24.27
2022-12-08T21:20:16.431Z,24.65
2022-12-08T21:27:02.257Z,27.20
2022-12-08T21:33:50.766Z,23.67
2022-12-08T21:40:36.399Z,24.65
2022-12-08T21:47:22.051Z,24.23
2022-12-08T21:54:14.982Z,19.40
2022-12-08T22:01:09.428Z,20.97
2022-12-08T22:07:55.100Z,20.30
2022-12-08T22:14:43.448Z,22.88
2022-12-08T22:21:29.002Z,19.65
2022-12-08T22:28:14.804Z,20.60
2022-12-08T22:35:02.809Z,22.88
2022-12-08T22:41:48.188Z,21.27
2022-12-08T22:48:33.790Z,18.70
2022-12-08T22:55:21.786Z,20.30
2022-12-08T23:02:07.477Z,21.85
2022-12-08T23:08:53.373Z,19.50
2022-12-08T23:15:42.078Z,17.58
2022-12-08T23:22:27.550Z,20.08
2022-12-08T23:29:12.984Z,19.60
2022-12-08T23:36:04.076Z,17.65
2022-12-08T23:42:49.687Z,19.08
2022-12-08T23:49:35.439Z,17.30
2022-12-08T23:56:28.647Z,18.00
